sensor_id;sensor_type;location;lat;lon;timestamp;P1;durP1;ratioP1;P2;durP2;ratioP2
67997;SDS011;54773;53.388;-1.504;2022-08-03T00:01:52;1.88;;;0.55;;
67997;SDS011;54773;53.388;-1.504;2022-08-03T00:04:20;1.05;;;0.50;;
67997;SDS011;54773;53.388;-1.504;2022-08-03T00:06:50;1.20;;;0.47;;
67997;SDS011;54773;53.388;-1.504;2022-08-03T00:09:20;1.65;;;0.55;;
67997;SDS011;54773;53.388;-1.504;2022-08-03T00:11:50;1.35;;;0.50;;
67997;SDS011;54773;53.388;-1.504;2022-08-03T00:14:20;1.02;;;0.50;;
67997;SDS011;54773;53.388;-1.504;2022-08-03T00:16:51;2.10;;;0.47;;
67997;SDS011;54773;53.388;-1.504;2022-08-03T00:19:22;0.77;;;0.30;;
67997;SDS011;54773;53.388;-1.504;2022-08-03T00:21:49;1.33;;;0.60;;
67997;SDS011;54773;53.388;-1.504;2022-08-03T00:24:22;2.10;;;0.63;;
67997;SDS011;54773;53.388;-1.504;2022-08-03T00:26:51;1.92;;;0.55;;
67997;SDS011;54773;53.388;-1.504;2022-08-03T00:29:16;1.17;;;0.40;;
67997;SDS011;54773;53.388;-1.504;2022-08-03T00:31:47;1.23;;;0.50;;
67997;SDS011;54773;53.388;-1.504;2022-08-03T00:34:15;1.15;;;0.55;;
67997;SDS011;54773;53.388;-1.504;2022-08-03T00:36:45;1.38;;;0.60;;
67997;SDS011;54773;53.388;-1.504;2022-08-03T00:39:14;1.40;;;0.60;;
67997;SDS011;54773;53.388;-1.504;2022-08-03T00:41:43;1.98;;;0.60;;
67997;SDS011;54773;53.388;-1.504;2022-08-03T00:44:09;0.85;;;0.40;;
67997;SDS011;54773;53.388;-1.504;2022-08-03T00:46:36;1.90;;;0.60;;
67997;SDS011;54773;53.388;-1.504;2022-08-03T00:49:04;2.30;;;0.40;;
67997;SDS011;54773;53.388;-1.504;2022-08-03T00:51:30;1.50;;;0.60;;
67997;SDS011;54773;53.388;-1.504;2022-08-03T00:53:57;1.05;;;0.50;;
67997;SDS011;54773;53.388;-1.504;2022-08-03T00:56:28;2.55;;;0.65;;
67997;SDS011;54773;53.388;-1.504;2022-08-03T00:58:55;2.03;;;0.60;;
67997;SDS011;54773;53.388;-1.504;2022-08-03T01:01:24;1.15;;;0.60;;
67997;SDS011;54773;53.388;-1.504;2022-08-03T01:03:55;1.55;;;0.68;;
67997;SDS011;54773;53.388;-1.504;2022-08-03T01:06:24;2.13;;;0.60;;
67997;SDS011;54773;53.388;-1.504;2022-08-03T01:11:31;1.38;;;0.68;;
67997;SDS011;54773;53.388;-1.504;2022-08-03T01:27:02;1.15;;;0.50;;
67997;SDS011;54773;53.388;-1.504;2022-08-03T01:29:49;0.50;;;0.38;;
67997;SDS011;54773;53.388;-1.504;2022-08-03T01:32:35;1.35;;;0.50;;
67997;SDS011;54773;53.388;-1.504;2022-08-03T01:35:05;1.15;;;0.50;;
67997;SDS011;54773;53.388;-1.504;2022-08-03T01:37:44;1.23;;;0.40;;
67997;SDS011;54773;53.388;-1.504;2022-08-03T01:40:21;1.92;;;0.63;;
67997;SDS011;54773;53.388;-1.504;2022-08-03T01:42:52;1.02;;;0.40;;
67997;SDS011;54773;53.388;-1.504;2022-08-03T01:45:23;0.20;;;0.20;;
67997;SDS011;54773;53.388;-1.504;2022-08-03T01:47:52;0.57;;;0.40;;
67997;SDS011;54773;53.388;-1.504;2022-08-03T01:50:23;1.38;;;0.50;;
67997;SDS011;54773;53.388;-1.504;2022-08-03T01:52:53;1.00;;;0.50;;
67997;SDS011;54773;53.388;-1.504;2022-08-03T01:55:28;0.70;;;0.40;;
67997;SDS011;54773;53.388;-1.504;2022-08-03T01:57:57;1.10;;;0.43;;
67997;SDS011;54773;53.388;-1.504;2022-08-03T02:00:24;1.15;;;0.45;;
67997;SDS011;54773;53.388;-1.504;2022-08-03T02:02:51;0.73;;;0.30;;
67997;SDS011;54773;53.388;-1.504;2022-08-03T02:05:20;0.88;;;0.40;;
67997;SDS011;54773;53.388;-1.504;2022-08-03T02:07:47;0.88;;;0.20;;
67997;SDS011;54773;53.388;-1.504;2022-08-03T02:10:19;0.52;;;0.30;;
67997;SDS011;54773;53.388;-1.504;2022-08-03T02:12:48;0.68;;;0.30;;
67997;SDS011;54773;53.388;-1.504;2022-08-03T02:15:19;0.80;;;0.38;;
67997;SDS011;54773;53.388;-1.504;2022-08-03T02:17:48;0.30;;;0.20;;
67997;SDS011;54773;53.388;-1.504;2022-08-03T02:20:14;1.58;;;0.47;;
67997;SDS011;54773;53.388;-1.504;2022-08-03T02:22:42;0.90;;;0.30;;
67997;SDS011;54773;53.388;-1.504;2022-08-03T02:25:11;0.88;;;0.30;;
67997;SDS011;54773;53.388;-1.504;2022-08-03T02:27:45;0.50;;;0.25;;
67997;SDS011;54773;53.388;-1.504;2022-08-03T02:30:16;0.80;;;0.35;;
67997;SDS011;54773;53.388;-1.504;2022-08-03T02:32:43;1.00;;;0.30;;
67997;SDS011;54773;53.388;-1.504;2022-08-03T02:35:15;2.78;;;0.40;;
67997;SDS011;54773;53.388;-1.504;2022-08-03T02:37:43;0.73;;;0.30;;
67997;SDS011;54773;53.388;-1.504;2022-08-03T02:40:15;0.95;;;0.30;;
67997;SDS011;54773;53.388;-1.504;2022-08-03T02:42:44;1.10;;;0.40;;
67997;SDS011;54773;53.388;-1.504;2022-08-03T02:45:12;0.90;;;0.40;;
67997;SDS011;54773;53.388;-1.504;2022-08-03T02:47:40;0.65;;;0.22;;
67997;SDS011;54773;53.388;-1.504;2022-08-03T02:50:13;1.48;;;0.30;;
67997;SDS011;54773;53.388;-1.504;2022-08-03T02:52:43;0.95;;;0.40;;
67997;SDS011;54773;53.388;-1.504;2022-08-03T02:55:09;0.95;;;0.35;;
67997;SDS011;54773;53.388;-1.504;2022-08-03T02:57:39;0.50;;;0.30;;
67997;SDS011;54773;53.388;-1.504;2022-08-03T03:00:06;1.30;;;0.40;;
67997;SDS011;54773;53.388;-1.504;2022-08-03T03:02:32;1.33;;;0.40;;
67997;SDS011;54773;53.388;-1.504;2022-08-03T03:05:00;0.73;;;0.30;;
67997;SDS011;54773;53.388;-1.504;2022-08-03T03:07:35;0.73;;;0.30;;
67997;SDS011;54773;53.388;-1.504;2022-08-03T03:10:03;2.08;;;0.50;;
67997;SDS011;54773;53.388;-1.504;2022-08-03T03:12:31;0.90;;;0.40;;
67997;SDS011;54773;53.388;-1.504;2022-08-03T03:14:58;1.02;;;0.40;;
67997;SDS011;54773;53.388;-1.504;2022-08-03T03:17:25;1.63;;;0.77;;
67997;SDS011;54773;53.388;-1.504;2022-08-03T03:19:53;1.33;;;0.40;;
67997;SDS011;54773;53.388;-1.504;2022-08-03T03:22:20;1.27;;;0.50;;
67997;SDS011;54773;53.388;-1.504;2022-08-03T03:24:50;2.58;;;0.50;;
67997;SDS011;54773;53.388;-1.504;2022-08-03T03:27:20;2.28;;;0.60;;
67997;SDS011;54773;53.388;-1.504;2022-08-03T03:29:47;1.13;;;0.45;;
67997;SDS011;54773;53.388;-1.504;2022-08-03T03:32:13;1.02;;;0.43;;
67997;SDS011;54773;53.388;-1.504;2022-08-03T03:34:39;1.92;;;0.55;;
67997;SDS011;54773;53.388;-1.504;2022-08-03T03:37:15;0.77;;;0.40;;
67997;SDS011;54773;53.388;-1.504;2022-08-03T03:39:41;1.00;;;0.40;;
67997;SDS011;54773;53.388;-1.504;2022-08-03T03:42:11;1.00;;;0.50;;
67997;SDS011;54773;53.388;-1.504;2022-08-03T03:44:41;1.17;;;0.60;;
67997;SDS011;54773;53.388;-1.504;2022-08-03T03:47:07;2.22;;;0.60;;
67997;SDS011;54773;53.388;-1.504;2022-08-03T03:49:34;1.55;;;0.60;;
67997;SDS011;54773;53.388;-1.504;2022-08-03T03:52:01;1.00;;;0.50;;
67997;SDS011;54773;53.388;-1.504;2022-08-03T03:54:38;1.38;;;0.60;;
67997;SDS011;54773;53.388;-1.504;2022-08-03T03:57:06;1.42;;;0.50;;
67997;SDS011;54773;53.388;-1.504;2022-08-03T03:59:36;0.93;;;0.35;;
67997;SDS011;54773;53.388;-1.504;2022-08-03T04:02:07;1.70;;;0.50;;
67997;SDS011;54773;53.388;-1.504;2022-08-03T04:04:36;1.00;;;0.40;;
67997;SDS011;54773;53.388;-1.504;2022-08-03T04:07:24;1.38;;;0.40;;
67997;SDS011;54773;53.388;-1.504;2022-08-03T04:10:12;0.75;;;0.50;;
67997;SDS011;54773;53.388;-1.504;2022-08-03T04:12:59;1.02;;;0.40;;
67997;SDS011;54773;53.388;-1.504;2022-08-03T04:15:25;1.25;;;0.38;;
67997;SDS011;54773;53.388;-1.504;2022-08-03T04:17:52;1.60;;;0.50;;
67997;SDS011;54773;53.388;-1.504;2022-08-03T04:20:18;0.77;;;0.40;;
67997;SDS011;54773;53.388;-1.504;2022-08-03T04:22:44;1.33;;;0.50;;
67997;SDS011;54773;53.388;-1.504;2022-08-03T04:25:13;2.42;;;0.50;;
67997;SDS011;54773;53.388;-1.504;2022-08-03T04:27:42;2.13;;;0.55;;
67997;SDS011;54773;53.388;-1.504;2022-08-03T04:30:09;1.60;;;0.50;;
67997;SDS011;54773;53.388;-1.504;2022-08-03T04:32:35;1.33;;;0.60;;
67997;SDS011;54773;53.388;-1.504;2022-08-03T04:35:04;2.90;;;0.68;;
67997;SDS011;54773;53.388;-1.504;2022-08-03T04:37:37;3.40;;;0.60;;
67997;SDS011;54773;53.388;-1.504;2022-08-03T04:40:19;0.98;;;0.50;;
67997;SDS011;54773;53.388;-1.504;2022-08-03T04:42:46;1.58;;;0.60;;
67997;SDS011;54773;53.388;-1.504;2022-08-03T04:45:16;1.40;;;0.52;;
67997;SDS011;54773;53.388;-1.504;2022-08-03T04:47:43;1.23;;;0.50;;
67997;SDS011;54773;53.388;-1.504;2022-08-03T04:50:13;2.05;;;0.68;;
67997;SDS011;54773;53.388;-1.504;2022-08-03T04:52:43;1.27;;;0.60;;
67997;SDS011;54773;53.388;-1.504;2022-08-03T04:55:10;2.17;;;0.70;;
67997;SDS011;54773;53.388;-1.504;2022-08-03T04:57:37;3.25;;;1.50;;
67997;SDS011;54773;53.388;-1.504;2022-08-03T05:00:08;4.78;;;1.23;;
67997;SDS011;54773;53.388;-1.504;2022-08-03T05:02:34;2.72;;;1.05;;
67997;SDS011;54773;53.388;-1.504;2022-08-03T05:05:01;2.72;;;0.90;;
67997;SDS011;54773;53.388;-1.504;2022-08-03T05:07:30;2.20;;;0.93;;
67997;SDS011;54773;53.388;-1.504;2022-08-03T05:09:56;2.85;;;1.05;;
67997;SDS011;54773;53.388;-1.504;2022-08-03T05:12:23;3.35;;;0.95;;
67997;SDS011;54773;53.388;-1.504;2022-08-03T05:14:55;3.92;;;1.00;;
67997;SDS011;54773;53.388;-1.504;2022-08-03T05:17:44;3.05;;;1.00;;
67997;SDS011;54773;53.388;-1.504;2022-08-03T05:20:10;2.85;;;0.80;;
67997;SDS011;54773;53.388;-1.504;2022-08-03T05:22:37;3.38;;;0.90;;
67997;SDS011;54773;53.388;-1.504;2022-08-03T05:25:02;2.58;;;0.80;;
67997;SDS011;54773;53.388;-1.504;2022-08-03T05:27:32;2.63;;;1.00;;
67997;SDS011;54773;53.388;-1.504;2022-08-03T05:29:58;2.75;;;1.17;;
67997;SDS011;54773;53.388;-1.504;2022-08-03T05:32:24;2.92;;;0.90;;
67997;SDS011;54773;53.388;-1.504;2022-08-03T05:34:50;2.72;;;1.23;;
67997;SDS011;54773;53.388;-1.504;2022-08-03T05:37:20;2.65;;;1.20;;
67997;SDS011;54773;53.388;-1.504;2022-08-03T05:39:50;2.05;;;0.95;;
67997;SDS011;54773;53.388;-1.504;2022-08-03T05:42:17;2.08;;;1.00;;
67997;SDS011;54773;53.388;-1.504;2022-08-03T05:44:43;4.28;;;1.08;;
67997;SDS011;54773;53.388;-1.504;2022-08-03T05:47:09;4.72;;;1.70;;
67997;SDS011;54773;53.388;-1.504;2022-08-03T05:49:35;3.78;;;2.15;;
67997;SDS011;54773;53.388;-1.504;2022-08-03T05:52:03;4.63;;;1.95;;
67997;SDS011;54773;53.388;-1.504;2022-08-03T05:54:30;3.50;;;2.00;;
67997;SDS011;54773;53.388;-1.504;2022-08-03T05:56:58;4.22;;;1.70;;
67997;SDS011;54773;53.388;-1.504;2022-08-03T05:59:24;4.97;;;1.90;;
67997;SDS011;54773;53.388;-1.504;2022-08-03T06:01:50;2.72;;;1.40;;
67997;SDS011;54773;53.388;-1.504;2022-08-03T06:04:16;3.00;;;1.60;;
67997;SDS011;54773;53.388;-1.504;2022-08-03T06:06:42;3.85;;;2.05;;
67997;SDS011;54773;53.388;-1.504;2022-08-03T06:09:08;3.42;;;1.50;;
67997;SDS011;54773;53.388;-1.504;2022-08-03T06:11:38;4.55;;;1.30;;
67997;SDS011;54773;53.388;-1.504;2022-08-03T06:14:05;4.50;;;1.60;;
67997;SDS011;54773;53.388;-1.504;2022-08-03T06:16:39;5.18;;;1.52;;
67997;SDS011;54773;53.388;-1.504;2022-08-03T06:19:05;4.38;;;1.95;;
67997;SDS011;54773;53.388;-1.504;2022-08-03T06:21:31;5.78;;;2.17;;
67997;SDS011;54773;53.388;-1.504;2022-08-03T06:23:56;4.13;;;2.13;;
67997;SDS011;54773;53.388;-1.504;2022-08-03T06:26:24;8.10;;;3.38;;
67997;SDS011;54773;53.388;-1.504;2022-08-03T06:28:52;6.38;;;2.50;;
67997;SDS011;54773;53.388;-1.504;2022-08-03T06:31:20;4.90;;;3.20;;
67997;SDS011;54773;53.388;-1.504;2022-08-03T06:33:51;6.53;;;3.70;;
67997;SDS011;54773;53.388;-1.504;2022-08-03T06:36:17;7.97;;;3.60;;
67997;SDS011;54773;53.388;-1.504;2022-08-03T06:38:43;5.35;;;3.20;;
67997;SDS011;54773;53.388;-1.504;2022-08-03T06:41:09;6.53;;;3.08;;
67997;SDS011;54773;53.388;-1.504;2022-08-03T06:43:35;5.57;;;3.17;;
67997;SDS011;54773;53.388;-1.504;2022-08-03T06:46:04;6.13;;;2.92;;
67997;SDS011;54773;53.388;-1.504;2022-08-03T06:48:33;5.80;;;2.38;;
67997;SDS011;54773;53.388;-1.504;2022-08-03T06:51:00;4.07;;;1.42;;
67997;SDS011;54773;53.388;-1.504;2022-08-03T06:53:28;4.32;;;1.25;;
67997;SDS011;54773;53.388;-1.504;2022-08-03T06:56:00;4.75;;;1.10;;
67997;SDS011;54773;53.388;-1.504;2022-08-03T06:58:26;3.55;;;1.25;;
67997;SDS011;54773;53.388;-1.504;2022-08-03T07:00:52;3.58;;;1.13;;
67997;SDS011;54773;53.388;-1.504;2022-08-03T07:03:17;4.03;;;1.50;;
67997;SDS011;54773;53.388;-1.504;2022-08-03T07:05:49;6.55;;;1.50;;
67997;SDS011;54773;53.388;-1.504;2022-08-03T07:08:16;4.97;;;1.50;;
67997;SDS011;54773;53.388;-1.504;2022-08-03T07:10:46;5.78;;;1.70;;
67997;SDS011;54773;53.388;-1.504;2022-08-03T07:13:13;5.03;;;1.63;;
67997;SDS011;54773;53.388;-1.504;2022-08-03T07:15:40;3.90;;;1.20;;
67997;SDS011;54773;53.388;-1.504;2022-08-03T07:18:06;2.92;;;1.40;;
67997;SDS011;54773;53.388;-1.504;2022-08-03T07:20:38;5.70;;;2.03;;
67997;SDS011;54773;53.388;-1.504;2022-08-03T07:23:07;6.00;;;1.60;;
67997;SDS011;54773;53.388;-1.504;2022-08-03T07:25:33;6.65;;;1.38;;
67997;SDS011;54773;53.388;-1.504;2022-08-03T07:28:03;4.82;;;1.55;;
67997;SDS011;54773;53.388;-1.504;2022-08-03T07:30:29;4.53;;;1.45;;
67997;SDS011;54773;53.388;-1.504;2022-08-03T07:32:55;3.92;;;1.30;;
67997;SDS011;54773;53.388;-1.504;2022-08-03T07:35:21;5.35;;;1.90;;
67997;SDS011;54773;53.388;-1.504;2022-08-03T07:37:47;4.95;;;1.60;;
67997;SDS011;54773;53.388;-1.504;2022-08-03T07:40:13;5.40;;;1.70;;
67997;SDS011;54773;53.388;-1.504;2022-08-03T07:42:38;3.92;;;1.50;;
67997;SDS011;54773;53.388;-1.504;2022-08-03T07:45:04;6.57;;;1.58;;
67997;SDS011;54773;53.388;-1.504;2022-08-03T07:47:32;3.25;;;1.30;;
67997;SDS011;54773;53.388;-1.504;2022-08-03T07:49:58;4.97;;;1.60;;
67997;SDS011;54773;53.388;-1.504;2022-08-03T07:52:24;4.70;;;1.33;;
67997;SDS011;54773;53.388;-1.504;2022-08-03T07:55:08;4.93;;;1.90;;
67997;SDS011;54773;53.388;-1.504;2022-08-03T07:57:34;3.75;;;1.60;;
67997;SDS011;54773;53.388;-1.504;2022-08-03T08:00:00;4.05;;;1.70;;
67997;SDS011;54773;53.388;-1.504;2022-08-03T08:02:27;3.97;;;1.52;;
67997;SDS011;54773;53.388;-1.504;2022-08-03T08:04:53;4.45;;;1.55;;
67997;SDS011;54773;53.388;-1.504;2022-08-03T08:07:19;4.57;;;1.48;;
67997;SDS011;54773;53.388;-1.504;2022-08-03T08:09:45;4.45;;;1.80;;
67997;SDS011;54773;53.388;-1.504;2022-08-03T08:12:11;5.22;;;1.90;;
67997;SDS011;54773;53.388;-1.504;2022-08-03T08:14:37;5.43;;;1.60;;
67997;SDS011;54773;53.388;-1.504;2022-08-03T08:17:02;6.15;;;1.70;;
67997;SDS011;54773;53.388;-1.504;2022-08-03T08:19:29;5.80;;;1.40;;
67997;SDS011;54773;53.388;-1.504;2022-08-03T08:21:55;5.93;;;2.03;;
67997;SDS011;54773;53.388;-1.504;2022-08-03T08:24:20;3.63;;;1.52;;
67997;SDS011;54773;53.388;-1.504;2022-08-03T08:26:46;7.75;;;1.80;;
67997;SDS011;54773;53.388;-1.504;2022-08-03T08:29:12;4.75;;;1.50;;
67997;SDS011;54773;53.388;-1.504;2022-08-03T08:31:37;4.45;;;1.90;;
67997;SDS011;54773;53.388;-1.504;2022-08-03T08:34:03;5.03;;;1.63;;
67997;SDS011;54773;53.388;-1.504;2022-08-03T08:36:33;5.57;;;1.73;;
67997;SDS011;54773;53.388;-1.504;2022-08-03T08:38:59;4.85;;;1.50;;
67997;SDS011;54773;53.388;-1.504;2022-08-03T08:41:25;5.65;;;1.45;;
67997;SDS011;54773;53.388;-1.504;2022-08-03T08:43:52;4.35;;;1.70;;
67997;SDS011;54773;53.388;-1.504;2022-08-03T08:46:17;4.65;;;1.50;;
67997;SDS011;54773;53.388;-1.504;2022-08-03T08:48:44;4.90;;;1.40;;
67997;SDS011;54773;53.388;-1.504;2022-08-03T08:51:10;6.20;;;1.67;;
67997;SDS011;54773;53.388;-1.504;2022-08-03T08:53:36;4.18;;;1.88;;
67997;SDS011;54773;53.388;-1.504;2022-08-03T08:56:04;5.95;;;1.85;;
67997;SDS011;54773;53.388;-1.504;2022-08-03T08:58:36;4.38;;;1.67;;
67997;SDS011;54773;53.388;-1.504;2022-08-03T09:01:02;5.38;;;1.60;;
67997;SDS011;54773;53.388;-1.504;2022-08-03T09:03:28;3.72;;;1.63;;
67997;SDS011;54773;53.388;-1.504;2022-08-03T09:05:54;5.55;;;2.00;;
67997;SDS011;54773;53.388;-1.504;2022-08-03T09:08:20;5.00;;;1.60;;
67997;SDS011;54773;53.388;-1.504;2022-08-03T09:10:47;5.03;;;1.73;;
67997;SDS011;54773;53.388;-1.504;2022-08-03T09:13:13;3.97;;;1.63;;
67997;SDS011;54773;53.388;-1.504;2022-08-03T09:15:40;5.07;;;1.80;;
67997;SDS011;54773;53.388;-1.504;2022-08-03T09:18:06;3.83;;;1.70;;
67997;SDS011;54773;53.388;-1.504;2022-08-03T09:20:33;4.90;;;1.65;;
67997;SDS011;54773;53.388;-1.504;2022-08-03T09:23:07;4.15;;;1.60;;
67997;SDS011;54773;53.388;-1.504;2022-08-03T09:30:40;5.72;;;1.80;;
67997;SDS011;54773;53.388;-1.504;2022-08-03T09:33:07;4.95;;;1.58;;
67997;SDS011;54773;53.388;-1.504;2022-08-03T09:38:11;4.00;;;1.55;;
67997;SDS011;54773;53.388;-1.504;2022-08-03T09:40:40;5.72;;;1.88;;
67997;SDS011;54773;53.388;-1.504;2022-08-03T09:43:07;6.50;;;1.70;;
67997;SDS011;54773;53.388;-1.504;2022-08-03T09:45:37;3.97;;;1.95;;
67997;SDS011;54773;53.388;-1.504;2022-08-03T09:48:23;4.75;;;2.20;;
67997;SDS011;54773;53.388;-1.504;2022-08-03T09:50:55;7.35;;;1.80;;
67997;SDS011;54773;53.388;-1.504;2022-08-03T09:53:22;6.10;;;1.70;;
67997;SDS011;54773;53.388;-1.504;2022-08-03T09:55:58;3.40;;;1.70;;
67997;SDS011;54773;53.388;-1.504;2022-08-03T09:58:28;6.18;;;2.00;;
67997;SDS011;54773;53.388;-1.504;2022-08-03T10:00:57;5.78;;;1.75;;
67997;SDS011;54773;53.388;-1.504;2022-08-03T10:03:34;4.50;;;1.70;;
67997;SDS011;54773;53.388;-1.504;2022-08-03T10:06:14;6.63;;;1.77;;
67997;SDS011;54773;53.388;-1.504;2022-08-03T10:08:42;4.75;;;2.00;;
67997;SDS011;54773;53.388;-1.504;2022-08-03T10:11:27;6.40;;;1.88;;
67997;SDS011;54773;53.388;-1.504;2022-08-03T10:13:54;5.10;;;1.90;;
67997;SDS011;54773;53.388;-1.504;2022-08-03T10:16:19;5.55;;;1.80;;
67997;SDS011;54773;53.388;-1.504;2022-08-03T10:18:45;5.60;;;1.92;;
67997;SDS011;54773;53.388;-1.504;2022-08-03T10:21:10;4.78;;;1.83;;
67997;SDS011;54773;53.388;-1.504;2022-08-03T10:23:38;5.07;;;1.58;;
67997;SDS011;54773;53.388;-1.504;2022-08-03T10:26:04;4.43;;;1.75;;
67997;SDS011;54773;53.388;-1.504;2022-08-03T10:28:35;5.18;;;1.85;;
67997;SDS011;54773;53.388;-1.504;2022-08-03T10:31:04;4.93;;;2.10;;
67997;SDS011;54773;53.388;-1.504;2022-08-03T10:33:33;5.95;;;1.92;;
67997;SDS011;54773;53.388;-1.504;2022-08-03T10:36:02;9.00;;;2.10;;
67997;SDS011;54773;53.388;-1.504;2022-08-03T10:38:37;6.70;;;2.17;;
67997;SDS011;54773;53.388;-1.504;2022-08-03T10:41:05;7.30;;;2.10;;
67997;SDS011;54773;53.388;-1.504;2022-08-03T10:43:35;5.25;;;2.20;;
67997;SDS011;54773;53.388;-1.504;2022-08-03T10:46:05;5.55;;;1.80;;
67997;SDS011;54773;53.388;-1.504;2022-08-03T10:48:35;5.50;;;1.80;;
67997;SDS011;54773;53.388;-1.504;2022-08-03T10:51:01;6.43;;;1.90;;
67997;SDS011;54773;53.388;-1.504;2022-08-03T10:53:33;3.83;;;1.77;;
67997;SDS011;54773;53.388;-1.504;2022-08-03T10:56:00;7.63;;;2.15;;
67997;SDS011;54773;53.388;-1.504;2022-08-03T10:58:45;5.47;;;2.20;;
67997;SDS011;54773;53.388;-1.504;2022-08-03T11:01:13;6.10;;;2.00;;
67997;SDS011;54773;53.388;-1.504;2022-08-03T11:06:18;6.70;;;2.10;;
67997;SDS011;54773;53.388;-1.504;2022-08-03T11:08:45;5.07;;;2.13;;
67997;SDS011;54773;53.388;-1.504;2022-08-03T11:13:56;5.30;;;1.92;;
67997;SDS011;54773;53.388;-1.504;2022-08-03T11:16:30;6.72;;;1.80;;
67997;SDS011;54773;53.388;-1.504;2022-08-03T11:18:59;5.35;;;1.73;;
67997;SDS011;54773;53.388;-1.504;2022-08-03T11:27:19;6.00;;;2.45;;
67997;SDS011;54773;53.388;-1.504;2022-08-03T11:42:57;4.93;;;1.98;;
67997;SDS011;54773;53.388;-1.504;2022-08-03T11:45:22;6.60;;;2.40;;
67997;SDS011;54773;53.388;-1.504;2022-08-03T11:47:48;5.15;;;2.00;;
67997;SDS011;54773;53.388;-1.504;2022-08-03T11:50:18;6.35;;;1.80;;
67997;SDS011;54773;53.388;-1.504;2022-08-03T11:52:44;6.95;;;2.00;;
67997;SDS011;54773;53.388;-1.504;2022-08-03T11:55:10;4.35;;;1.65;;
67997;SDS011;54773;53.388;-1.504;2022-08-03T11:57:37;6.20;;;2.05;;
67997;SDS011;54773;53.388;-1.504;2022-08-03T12:00:25;4.05;;;1.80;;
67997;SDS011;54773;53.388;-1.504;2022-08-03T12:02:57;5.38;;;2.08;;
67997;SDS011;54773;53.388;-1.504;2022-08-03T12:08:00;6.20;;;1.70;;
67997;SDS011;54773;53.388;-1.504;2022-08-03T12:10:26;6.40;;;1.67;;
67997;SDS011;54773;53.388;-1.504;2022-08-03T12:12:55;3.92;;;2.00;;
67997;SDS011;54773;53.388;-1.504;2022-08-03T12:15:29;6.82;;;1.85;;
67997;SDS011;54773;53.388;-1.504;2022-08-03T12:18:02;4.97;;;1.80;;
67997;SDS011;54773;53.388;-1.504;2022-08-03T12:20:34;5.03;;;1.65;;
67997;SDS011;54773;53.388;-1.504;2022-08-03T12:23:03;4.85;;;1.90;;
67997;SDS011;54773;53.388;-1.504;2022-08-03T12:25:33;5.05;;;1.70;;
67997;SDS011;54773;53.388;-1.504;2022-08-03T12:28:06;6.28;;;1.88;;
67997;SDS011;54773;53.388;-1.504;2022-08-03T12:30:36;6.15;;;1.77;;
67997;SDS011;54773;53.388;-1.504;2022-08-03T12:33:13;6.97;;;1.65;;
67997;SDS011;54773;53.388;-1.504;2022-08-03T12:35:47;6.05;;;1.90;;
67997;SDS011;54773;53.388;-1.504;2022-08-03T12:38:18;3.97;;;1.60;;
67997;SDS011;54773;53.388;-1.504;2022-08-03T12:40:54;4.32;;;1.85;;
67997;SDS011;54773;53.388;-1.504;2022-08-03T12:43:21;4.97;;;1.60;;
67997;SDS011;54773;53.388;-1.504;2022-08-03T12:45:47;5.70;;;1.98;;
67997;SDS011;54773;53.388;-1.504;2022-08-03T12:48:12;5.18;;;2.05;;
67997;SDS011;54773;53.388;-1.504;2022-08-03T12:50:38;5.97;;;2.10;;
67997;SDS011;54773;53.388;-1.504;2022-08-03T12:53:06;5.80;;;1.85;;
67997;SDS011;54773;53.388;-1.504;2022-08-03T12:55:33;5.70;;;1.50;;
67997;SDS011;54773;53.388;-1.504;2022-08-03T12:57:59;8.88;;;2.10;;
67997;SDS011;54773;53.388;-1.504;2022-08-03T13:00:25;5.28;;;1.42;;
67997;SDS011;54773;53.388;-1.504;2022-08-03T13:03:07;5.57;;;1.48;;
67997;SDS011;54773;53.388;-1.504;2022-08-03T13:05:50;5.13;;;1.73;;
67997;SDS011;54773;53.388;-1.504;2022-08-03T13:08:21;5.75;;;1.75;;
67997;SDS011;54773;53.388;-1.504;2022-08-03T13:10:49;4.22;;;1.52;;
67997;SDS011;54773;53.388;-1.504;2022-08-03T13:13:15;5.80;;;1.70;;
67997;SDS011;54773;53.388;-1.504;2022-08-03T13:15:41;6.20;;;2.08;;
67997;SDS011;54773;53.388;-1.504;2022-08-03T13:18:08;7.65;;;1.98;;
67997;SDS011;54773;53.388;-1.504;2022-08-03T13:20:34;5.30;;;1.90;;
67997;SDS011;54773;53.388;-1.504;2022-08-03T13:23:00;7.03;;;1.98;;
67997;SDS011;54773;53.388;-1.504;2022-08-03T13:25:25;5.97;;;1.55;;
67997;SDS011;54773;53.388;-1.504;2022-08-03T13:27:51;7.07;;;1.95;;
67997;SDS011;54773;53.388;-1.504;2022-08-03T13:30:17;5.65;;;1.65;;
67997;SDS011;54773;53.388;-1.504;2022-08-03T13:32:43;4.50;;;1.52;;
67997;SDS011;54773;53.388;-1.504;2022-08-03T13:35:09;7.65;;;2.40;;
67997;SDS011;54773;53.388;-1.504;2022-08-03T13:37:35;5.28;;;2.17;;
67997;SDS011;54773;53.388;-1.504;2022-08-03T13:40:02;10.98;;;2.20;;
67997;SDS011;54773;53.388;-1.504;2022-08-03T13:42:29;7.05;;;1.73;;
67997;SDS011;54773;53.388;-1.504;2022-08-03T13:44:59;5.18;;;1.83;;
67997;SDS011;54773;53.388;-1.504;2022-08-03T13:47:25;6.57;;;1.70;;
67997;SDS011;54773;53.388;-1.504;2022-08-03T13:49:51;5.07;;;1.60;;
67997;SDS011;54773;53.388;-1.504;2022-08-03T13:52:18;4.45;;;1.58;;
67997;SDS011;54773;53.388;-1.504;2022-08-03T13:54:44;4.47;;;1.65;;
67997;SDS011;54773;53.388;-1.504;2022-08-03T13:57:09;7.45;;;1.60;;
67997;SDS011;54773;53.388;-1.504;2022-08-03T13:59:36;6.35;;;1.63;;
67997;SDS011;54773;53.388;-1.504;2022-08-03T14:02:02;6.05;;;1.98;;
67997;SDS011;54773;53.388;-1.504;2022-08-03T14:04:28;6.93;;;1.60;;
67997;SDS011;54773;53.388;-1.504;2022-08-03T14:06:54;5.32;;;1.77;;
67997;SDS011;54773;53.388;-1.504;2022-08-03T14:09:19;5.85;;;1.85;;
67997;SDS011;54773;53.388;-1.504;2022-08-03T14:11:45;7.30;;;1.67;;
67997;SDS011;54773;53.388;-1.504;2022-08-03T14:14:11;5.38;;;1.77;;
67997;SDS011;54773;53.388;-1.504;2022-08-03T14:16:36;7.28;;;1.92;;
67997;SDS011;54773;53.388;-1.504;2022-08-03T14:19:02;5.20;;;1.70;;
67997;SDS011;54773;53.388;-1.504;2022-08-03T14:21:28;4.70;;;1.73;;
67997;SDS011;54773;53.388;-1.504;2022-08-03T14:24:00;5.53;;;2.00;;
67997;SDS011;54773;53.388;-1.504;2022-08-03T14:26:26;5.38;;;1.63;;
67997;SDS011;54773;53.388;-1.504;2022-08-03T14:28:52;4.60;;;1.60;;
67997;SDS011;54773;53.388;-1.504;2022-08-03T14:31:17;4.57;;;1.70;;
67997;SDS011;54773;53.388;-1.504;2022-08-03T14:33:43;4.15;;;1.70;;
67997;SDS011;54773;53.388;-1.504;2022-08-03T14:36:08;4.45;;;1.55;;
67997;SDS011;54773;53.388;-1.504;2022-08-03T14:38:34;6.03;;;1.70;;
67997;SDS011;54773;53.388;-1.504;2022-08-03T14:40:59;4.35;;;1.60;;
67997;SDS011;54773;53.388;-1.504;2022-08-03T14:43:25;5.68;;;1.70;;
67997;SDS011;54773;53.388;-1.504;2022-08-03T14:45:51;5.05;;;1.80;;
67997;SDS011;54773;53.388;-1.504;2022-08-03T14:48:18;4.57;;;1.52;;
67997;SDS011;54773;53.388;-1.504;2022-08-03T14:50:44;6.32;;;1.58;;
67997;SDS011;54773;53.388;-1.504;2022-08-03T14:53:10;4.43;;;1.10;;
67997;SDS011;54773;53.388;-1.504;2022-08-03T14:55:35;3.88;;;1.50;;
67997;SDS011;54773;53.388;-1.504;2022-08-03T14:58:01;4.47;;;1.50;;
67997;SDS011;54773;53.388;-1.504;2022-08-03T15:00:32;5.07;;;1.40;;
67997;SDS011;54773;53.388;-1.504;2022-08-03T15:02:59;4.22;;;1.50;;
67997;SDS011;54773;53.388;-1.504;2022-08-03T15:05:24;6.55;;;1.70;;
67997;SDS011;54773;53.388;-1.504;2022-08-03T15:07:50;4.18;;;1.35;;
67997;SDS011;54773;53.388;-1.504;2022-08-03T15:10:15;7.93;;;1.60;;
67997;SDS011;54773;53.388;-1.504;2022-08-03T15:12:41;4.03;;;1.45;;
67997;SDS011;54773;53.388;-1.504;2022-08-03T15:15:07;4.40;;;1.27;;
67997;SDS011;54773;53.388;-1.504;2022-08-03T15:17:33;3.92;;;1.48;;
67997;SDS011;54773;53.388;-1.504;2022-08-03T15:19:59;4.10;;;1.48;;
67997;SDS011;54773;53.388;-1.504;2022-08-03T15:22:24;3.13;;;1.20;;
67997;SDS011;54773;53.388;-1.504;2022-08-03T15:24:50;5.15;;;1.65;;
67997;SDS011;54773;53.388;-1.504;2022-08-03T15:27:16;6.00;;;1.83;;
67997;SDS011;54773;53.388;-1.504;2022-08-03T15:29:48;4.93;;;1.40;;
67997;SDS011;54773;53.388;-1.504;2022-08-03T15:32:14;6.20;;;1.55;;